sensor_id;sensor_type;location;lat;lon;timestamp;pressure;altitude;pressure_sealevel;temperature;humidity
51468;BME280;37545;45.302;-122.946;2022-10-15T00:01:17;100513.28;;;29.51;29.11
51468;BME280;37545;45.302;-122.946;2022-10-15T00:03:46;100511.00;;;29.43;28.22
51468;BME280;37545;45.302;-122.946;2022-10-15T00:06:16;100518.56;;;29.35;29.66
51468;BME280;37545;45.302;-122.946;2022-10-15T00:08:46;100512.69;;;29.29;29.90
51468;BME280;37545;45.302;-122.946;2022-10-15T00:11:18;100512.16;;;29.22;30.11
51468;BME280;37545;45.302;-122.946;2022-10-15T00:13:48;100515.13;;;29.16;29.68
51468;BME280;37545;45.302;-122.946;2022-10-15T00:16:18;100509.34;;;29.08;29.99
51468;BME280;37545;45.302;-122.946;2022-10-15T00:18:47;100515.13;;;28.98;29.90
51468;BME280;37545;45.302;-122.946;2022-10-15T00:21:17;100507.50;;;28.91;30.60
51468;BME280;37545;45.302;-122.946;2022-10-15T00:23:47;100503.53;;;28.82;30.34
51468;BME280;37545;45.302;-122.946;2022-10-15T00:26:19;100504.84;;;28.73;30.61
51468;BME280;37545;45.302;-122.946;2022-10-15T00:28:51;100502.72;;;28.63;31.05
51468;BME280;37545;45.302;-122.946;2022-10-15T00:31:20;100495.13;;;28.55;30.85
51468;BME280;37545;45.302;-122.946;2022-10-15T00:33:50;100492.81;;;28.47;31.55
51468;BME280;37545;45.302;-122.946;2022-10-15T00:36:21;100493.22;;;28.38;31.37
51468;BME280;37545;45.302;-122.946;2022-10-15T00:38:57;100493.69;;;28.29;31.41
51468;BME280;37545;45.302;-122.946;2022-10-15T00:41:29;100493.28;;;28.19;31.20
51468;BME280;37545;45.302;-122.946;2022-10-15T00:43:59;100493.00;;;28.06;31.50
51468;BME280;37545;45.302;-122.946;2022-10-15T00:46:31;100497.88;;;27.96;31.82
51468;BME280;37545;45.302;-122.946;2022-10-15T00:49:06;100493.16;;;27.84;31.39
51468;BME280;37545;45.302;-122.946;2022-10-15T00:51:43;100500.72;;;27.73;32.47
51468;BME280;37545;45.302;-122.946;2022-10-15T00:54:31;100496.84;;;27.61;31.95
51468;BME280;37545;45.302;-122.946;2022-10-15T00:57:04;100482.63;;;27.42;32.62
51468;BME280;37545;45.302;-122.946;2022-10-15T00:59:35;100490.91;;;27.35;32.46
51468;BME280;37545;45.302;-122.946;2022-10-15T01:02:06;100496.75;;;27.23;32.22
51468;BME280;37545;45.302;-122.946;2022-10-15T01:04:35;100496.41;;;27.10;32.58
51468;BME280;37545;45.302;-122.946;2022-10-15T01:07:04;100493.38;;;26.98;32.02
51468;BME280;37545;45.302;-122.946;2022-10-15T01:09:34;100490.41;;;26.85;32.45
51468;BME280;37545;45.302;-122.946;2022-10-15T01:12:06;100497.06;;;26.73;33.11
51468;BME280;37545;45.302;-122.946;2022-10-15T01:14:45;100489.63;;;26.61;32.88
51468;BME280;37545;45.302;-122.946;2022-10-15T01:17:20;100498.09;;;26.48;33.32
51468;BME280;37545;45.302;-122.946;2022-10-15T01:20:13;100488.88;;;26.35;33.03
51468;BME280;37545;45.302;-122.946;2022-10-15T01:23:00;100483.28;;;26.21;33.55
51468;BME280;37545;45.302;-122.946;2022-10-15T01:25:46;100480.22;;;26.08;33.68
51468;BME280;37545;45.302;-122.946;2022-10-15T01:28:24;100479.78;;;25.97;33.53
51468;BME280;37545;45.302;-122.946;2022-10-15T01:30:58;100475.78;;;25.85;33.66
51468;BME280;37545;45.302;-122.946;2022-10-15T01:33:34;100470.84;;;25.76;34.25
51468;BME280;37545;45.302;-122.946;2022-10-15T01:36:08;100478.28;;;25.66;34.37
51468;BME280;37545;45.302;-122.946;2022-10-15T01:38:48;100468.94;;;25.56;34.07
51468;BME280;37545;45.302;-122.946;2022-10-15T01:41:24;100468.53;;;25.43;33.85
51468;BME280;37545;45.302;-122.946;2022-10-15T01:43:59;100481.19;;;25.35;34.59
51468;BME280;37545;45.302;-122.946;2022-10-15T01:46:33;100478.91;;;25.24;35.00
51468;BME280;37545;45.302;-122.946;2022-10-15T01:49:04;100480.13;;;25.14;34.33
51468;BME280;37545;45.302;-122.946;2022-10-15T01:51:36;100484.81;;;25.05;34.58
51468;BME280;37545;45.302;-122.946;2022-10-15T01:54:09;100484.28;;;24.96;35.00
51468;BME280;37545;45.302;-122.946;2022-10-15T01:56:39;100482.78;;;24.88;35.02
51468;BME280;37545;45.302;-122.946;2022-10-15T01:59:12;100479.75;;;24.74;36.12
51468;BME280;37545;45.302;-122.946;2022-10-15T02:01:43;100478.41;;;24.61;35.33
51468;BME280;37545;45.302;-122.946;2022-10-15T02:04:19;100482.25;;;24.51;35.19
51468;BME280;37545;45.302;-122.946;2022-10-15T02:06:51;100479.06;;;24.39;34.98
51468;BME280;37545;45.302;-122.946;2022-10-15T02:09:31;100490.84;;;24.29;35.75
51468;BME280;37545;45.302;-122.946;2022-10-15T02:12:11;100483.31;;;24.17;35.82
51468;BME280;37545;45.302;-122.946;2022-10-15T02:14:51;100479.31;;;24.03;36.43
51468;BME280;37545;45.302;-122.946;2022-10-15T02:17:26;100488.50;;;23.92;37.12
51468;BME280;37545;45.302;-122.946;2022-10-15T02:20:00;100488.06;;;23.76;37.51
51468;BME280;37545;45.302;-122.946;2022-10-15T02:22:36;100491.16;;;23.59;41.05
51468;BME280;37545;45.302;-122.946;2022-10-15T02:25:11;100489.84;;;23.42;41.78
51468;BME280;37545;45.302;-122.946;2022-10-15T02:27:43;100498.03;;;23.33;40.73
51468;BME280;37545;45.302;-122.946;2022-10-15T02:30:13;100498.25;;;23.26;41.96
51468;BME280;37545;45.302;-122.946;2022-10-15T02:32:47;100497.66;;;23.14;40.26
51468;BME280;37545;45.302;-122.946;2022-10-15T02:35:18;100493.53;;;23.04;40.35
51468;BME280;37545;45.302;-122.946;2022-10-15T02:37:51;100502.53;;;22.95;40.09
51468;BME280;37545;45.302;-122.946;2022-10-15T02:40:24;100499.41;;;22.79;40.32
51468;BME280;37545;45.302;-122.946;2022-10-15T02:42:55;100498.00;;;22.66;41.73
51468;BME280;37545;45.302;-122.946;2022-10-15T02:45:24;100492.19;;;22.52;42.66
51468;BME280;37545;45.302;-122.946;2022-10-15T02:47:54;100498.59;;;22.40;42.69
51468;BME280;37545;45.302;-122.946;2022-10-15T02:50:23;100497.09;;;22.30;42.98
51468;BME280;37545;45.302;-122.946;2022-10-15T02:52:52;100499.06;;;22.18;43.37
51468;BME280;37545;45.302;-122.946;2022-10-15T02:55:20;100501.91;;;22.09;43.53
51468;BME280;37545;45.302;-122.946;2022-10-15T02:57:48;100501.25;;;22.00;43.19
51468;BME280;37545;45.302;-122.946;2022-10-15T03:00:17;100501.50;;;21.87;43.66
51468;BME280;37545;45.302;-122.946;2022-10-15T03:02:46;100497.41;;;21.74;43.59
51468;BME280;37545;45.302;-122.946;2022-10-15T03:05:16;100495.00;;;21.62;44.08
51468;BME280;37545;45.302;-122.946;2022-10-15T03:07:45;100502.25;;;21.50;43.96
51468;BME280;37545;45.302;-122.946;2022-10-15T03:10:14;100507.69;;;21.41;44.54
51468;BME280;37545;45.302;-122.946;2022-10-15T03:12:42;100511.31;;;21.34;44.32
51468;BME280;37545;45.302;-122.946;2022-10-15T03:15:11;100514.09;;;21.26;44.49
51468;BME280;37545;45.302;-122.946;2022-10-15T03:17:39;100513.34;;;21.20;44.72
51468;BME280;37545;45.302;-122.946;2022-10-15T03:20:08;100520.53;;;21.10;44.58
51468;BME280;37545;45.302;-122.946;2022-10-15T03:22:38;100513.69;;;21.00;44.81
51468;BME280;37545;45.302;-122.946;2022-10-15T03:25:07;100509.50;;;20.86;44.87
51468;BME280;37545;45.302;-122.946;2022-10-15T03:27:43;100504.41;;;20.77;45.60
51468;BME280;37545;45.302;-122.946;2022-10-15T03:30:12;100517.69;;;20.69;46.02
51468;BME280;37545;45.302;-122.946;2022-10-15T03:32:40;100515.19;;;20.62;46.50
51468;BME280;37545;45.302;-122.946;2022-10-15T03:35:09;100517.00;;;20.57;46.45
51468;BME280;37545;45.302;-122.946;2022-10-15T03:37:39;100513.56;;;20.51;46.63
51468;BME280;37545;45.302;-122.946;2022-10-15T03:40:08;100509.28;;;20.46;46.42
51468;BME280;37545;45.302;-122.946;2022-10-15T03:42:37;100512.84;;;20.42;46.41
51468;BME280;37545;45.302;-122.946;2022-10-15T03:45:07;100518.16;;;20.37;46.11
51468;BME280;37545;45.302;-122.946;2022-10-15T03:47:36;100506.88;;;20.29;46.02
51468;BME280;37545;45.302;-122.946;2022-10-15T03:50:05;100503.44;;;20.24;45.49
51468;BME280;37545;45.302;-122.946;2022-10-15T03:52:34;100507.91;;;20.17;45.42
51468;BME280;37545;45.302;-122.946;2022-10-15T03:55:06;100504.44;;;20.15;46.23
51468;BME280;37545;45.302;-122.946;2022-10-15T03:57:35;100506.25;;;20.12;45.77
51468;BME280;37545;45.302;-122.946;2022-10-15T04:00:06;100508.91;;;20.10;46.17
51468;BME280;37545;45.302;-122.946;2022-10-15T04:02:35;100510.69;;;20.06;46.18
51468;BME280;37545;45.302;-122.946;2022-10-15T04:05:04;100503.75;;;20.02;46.53
51468;BME280;37545;45.302;-122.946;2022-10-15T04:07:33;100511.69;;;19.98;46.42
51468;BME280;37545;45.302;-122.946;2022-10-15T04:10:01;100517.03;;;19.92;46.46
51468;BME280;37545;45.302;-122.946;2022-10-15T04:12:32;100513.59;;;19.86;46.58
51468;BME280;37545;45.302;-122.946;2022-10-15T04:15:00;100513.66;;;19.80;46.79
51468;BME280;37545;45.302;-122.946;2022-10-15T04:17:29;100503.22;;;19.74;46.38
51468;BME280;37545;45.302;-122.946;2022-10-15T04:19:57;100499.78;;;19.71;46.86
51468;BME280;37545;45.302;-122.946;2022-10-15T04:22:26;100500.66;;;19.68;47.27
51468;BME280;37545;45.302;-122.946;2022-10-15T04:24:54;100502.44;;;19.66;46.53
51468;BME280;37545;45.302;-122.946;2022-10-15T04:27:23;100505.97;;;19.63;46.96
51468;BME280;37545;45.302;-122.946;2022-10-15T04:29:53;100499.00;;;19.59;45.97
51468;BME280;37545;45.302;-122.946;2022-10-15T04:32:22;100507.78;;;19.57;46.21
51468;BME280;37545;45.302;-122.946;2022-10-15T04:34:50;100517.44;;;19.55;46.17
51468;BME280;37545;45.302;-122.946;2022-10-15T04:37:19;100524.44;;;19.53;46.72
51468;BME280;37545;45.302;-122.946;2022-10-15T04:39:47;100533.22;;;19.50;46.71
51468;BME280;37545;45.302;-122.946;2022-10-15T04:42:16;100529.75;;;19.46;46.87
51468;BME280;37545;45.302;-122.946;2022-10-15T04:44:44;100536.78;;;19.44;46.42
51468;BME280;37545;45.302;-122.946;2022-10-15T04:47:15;100538.56;;;19.42;46.92
51468;BME280;37545;45.302;-122.946;2022-10-15T04:49:43;100536.81;;;19.41;46.48
51468;BME280;37545;45.302;-122.946;2022-10-15T04:52:12;100537.72;;;19.40;46.49
51468;BME280;37545;45.302;-122.946;2022-10-15T04:54:40;100541.25;;;19.38;46.82
51468;BME280;37545;45.302;-122.946;2022-10-15T04:57:16;100546.50;;;19.36;46.66
51468;BME280;37545;45.302;-122.946;2022-10-15T04:59:44;100550.88;;;19.34;47.03
51468;BME280;37545;45.302;-122.946;2022-10-15T05:02:14;100550.94;;;19.31;46.70
51468;BME280;37545;45.302;-122.946;2022-10-15T05:04:43;100553.56;;;19.30;47.29
51468;BME280;37545;45.302;-122.946;2022-10-15T05:07:11;100543.09;;;19.27;47.69
51468;BME280;37545;45.302;-122.946;2022-10-15T05:09:40;100556.22;;;19.25;46.37
51468;BME280;37545;45.302;-122.946;2022-10-15T05:12:08;100545.72;;;19.25;47.17
51468;BME280;37545;45.302;-122.946;2022-10-15T05:14:37;100554.47;;;19.25;46.61
51468;BME280;37545;45.302;-122.946;2022-10-15T05:17:06;100556.22;;;19.25;47.46
51468;BME280;37545;45.302;-122.946;2022-10-15T05:19:37;100560.56;;;19.26;47.62
51468;BME280;37545;45.302;-122.946;2022-10-15T05:22:05;100559.69;;;19.27;46.60
51468;BME280;37545;45.302;-122.946;2022-10-15T05:24:34;100570.16;;;19.30;46.12
51468;BME280;37545;45.302;-122.946;2022-10-15T05:27:02;100568.34;;;19.35;46.11
51468;BME280;37545;45.302;-122.946;2022-10-15T05:29:31;100579.69;;;19.39;45.67
51468;BME280;37545;45.302;-122.946;2022-10-15T05:32:00;100578.78;;;19.41;45.54
51468;BME280;37545;45.302;-122.946;2022-10-15T05:34:28;100573.50;;;19.44;45.72
51468;BME280;37545;45.302;-122.946;2022-10-15T05:36:58;100572.63;;;19.47;45.43
51468;BME280;37545;45.302;-122.946;2022-10-15T05:39:27;100564.75;;;19.47;45.36
51468;BME280;37545;45.302;-122.946;2022-10-15T05:41:56;100554.31;;;19.42;45.25
51468;BME280;37545;45.302;-122.946;2022-10-15T05:44:24;100566.47;;;19.50;45.41
51468;BME280;37545;45.302;-122.946;2022-10-15T05:46:53;100569.13;;;19.48;45.64
51468;BME280;37545;45.302;-122.946;2022-10-15T05:49:21;100562.16;;;19.45;45.75
51468;BME280;37545;45.302;-122.946;2022-10-15T05:51:50;100556.03;;;19.43;45.69
51468;BME280;37545;45.302;-122.946;2022-10-15T05:54:20;100551.69;;;19.41;46.13
51468;BME280;37545;45.302;-122.946;2022-10-15T05:56:49;100552.59;;;19.38;46.15
51468;BME280;37545;45.302;-122.946;2022-10-15T05:59:17;100550.88;;;19.36;45.55
51468;BME280;37545;45.302;-122.946;2022-10-15T06:01:46;100560.47;;;19.35;45.64
51468;BME280;37545;45.302;-122.946;2022-10-15T06:04:15;100554.38;;;19.35;45.57
51468;BME280;37545;45.302;-122.946;2022-10-15T06:06:43;100550.03;;;19.34;45.42
51468;BME280;37545;45.302;-122.946;2022-10-15T06:09:12;100546.50;;;19.33;45.71
51468;BME280;37545;45.302;-122.946;2022-10-15T06:11:42;100550.94;;;19.31;45.57
51468;BME280;37545;45.302;-122.946;2022-10-15T06:14:10;100545.69;;;19.28;46.06
51468;BME280;37545;45.302;-122.946;2022-10-15T06:16:39;100550.97;;;19.25;46.23
51468;BME280;37545;45.302;-122.946;2022-10-15T06:19:07;100555.34;;;19.23;46.35
51468;BME280;37545;45.302;-122.946;2022-10-15T06:21:36;100558.88;;;19.19;46.15
51468;BME280;37545;45.302;-122.946;2022-10-15T06:24:05;100548.44;;;19.14;47.08
51468;BME280;37545;45.302;-122.946;2022-10-15T06:26:33;100549.34;;;19.10;47.64
51468;BME280;37545;45.302;-122.946;2022-10-15T06:29:04;100555.50;;;19.08;47.27
51468;BME280;37545;45.302;-122.946;2022-10-15T06:31:32;100547.66;;;19.03;46.10
51468;BME280;37545;45.302;-122.946;2022-10-15T06:34:01;100542.47;;;19.00;46.32
51468;BME280;37545;45.302;-122.946;2022-10-15T06:36:29;100535.50;;;18.94;46.36
51468;BME280;37545;45.302;-122.946;2022-10-15T06:38:58;100532.06;;;18.89;47.15
51468;BME280;37545;45.302;-122.946;2022-10-15T06:41:26;100537.34;;;18.84;46.98
51468;BME280;37545;45.302;-122.946;2022-10-15T06:43:55;100519.91;;;18.73;47.34
51468;BME280;37545;45.302;-122.946;2022-10-15T06:46:25;100533.91;;;18.72;46.85
51468;BME280;37545;45.302;-122.946;2022-10-15T06:48:54;100533.94;;;18.66;47.54
51468;BME280;37545;45.302;-122.946;2022-10-15T06:51:22;100530.50;;;18.60;48.17
51468;BME280;37545;45.302;-122.946;2022-10-15T06:53:51;100527.06;;;18.52;47.95
51468;BME280;37545;45.302;-122.946;2022-10-15T06:56:19;100531.47;;;18.47;47.65
51468;BME280;37545;45.302;-122.946;2022-10-15T06:58:48;100523.69;;;18.35;48.56
51468;BME280;37545;45.302;-122.946;2022-10-15T07:01:16;100533.28;;;18.37;49.41
51468;BME280;37545;45.302;-122.946;2022-10-15T07:03:48;100539.41;;;18.32;49.95
51468;BME280;37545;45.302;-122.946;2022-10-15T07:06:17;100521.13;;;18.23;49.49
51468;BME280;37545;45.302;-122.946;2022-10-15T07:08:46;100530.72;;;18.20;49.02
51468;BME280;37545;45.302;-122.946;2022-10-15T07:11:14;100534.28;;;18.13;49.93
51468;BME280;37545;45.302;-122.946;2022-10-15T07:13:43;100534.28;;;18.09;49.39
51468;BME280;37545;45.302;-122.946;2022-10-15T07:16:12;100536.91;;;18.07;49.95
51468;BME280;37545;45.302;-122.946;2022-10-15T07:18:41;100524.75;;;18.03;49.37
51468;BME280;37545;45.302;-122.946;2022-10-15T07:21:11;100525.59;;;18.02;48.74
51468;BME280;37545;45.302;-122.946;2022-10-15T07:23:39;100527.41;;;17.94;48.96
51468;BME280;37545;45.302;-122.946;2022-10-15T07:26:08;100534.38;;;17.92;48.70
51468;BME280;37545;45.302;-122.946;2022-10-15T07:28:37;100530.91;;;17.87;48.98
51468;BME280;37545;45.302;-122.946;2022-10-15T07:31:07;100525.69;;;17.82;49.03
51468;BME280;37545;45.302;-122.946;2022-10-15T07:33:35;100526.53;;;17.79;49.79
51468;BME280;37545;45.302;-122.946;2022-10-15T07:36:05;100524.81;;;17.75;48.08
51468;BME280;37545;45.302;-122.946;2022-10-15T07:38:36;100525.69;;;17.74;48.33
51468;BME280;37545;45.302;-122.946;2022-10-15T07:41:07;100532.66;;;17.72;48.55
51468;BME280;37545;45.302;-122.946;2022-10-15T07:43:36;100528.28;;;17.73;48.36
51468;BME280;37545;45.302;-122.946;2022-10-15T07:46:05;100535.28;;;17.72;48.69
51468;BME280;37545;45.302;-122.946;2022-10-15T07:48:34;100531.81;;;17.67;49.27
51468;BME280;37545;45.302;-122.946;2022-10-15T07:51:04;100536.19;;;17.65;49.08
51468;BME280;37545;45.302;-122.946;2022-10-15T07:53:33;100537.94;;;17.65;48.68
51468;BME280;37545;45.302;-122.946;2022-10-15T07:56:05;100536.16;;;17.64;49.02
51468;BME280;37545;45.302;-122.946;2022-10-15T07:58:35;100534.47;;;17.58;48.38
51468;BME280;37545;45.302;-122.946;2022-10-15T08:01:04;100536.22;;;17.53;49.54
51468;BME280;37545;45.302;-122.946;2022-10-15T08:03:33;100527.53;;;17.48;50.41
51468;BME280;37545;45.302;-122.946;2022-10-15T08:06:04;100525.78;;;17.44;48.00
51468;BME280;37545;45.302;-122.946;2022-10-15T08:08:33;100523.16;;;17.44;49.20
51468;BME280;37545;45.302;-122.946;2022-10-15T08:11:06;100521.41;;;17.43;48.56
51468;BME280;37545;45.302;-122.946;2022-10-15T08:13:34;100526.66;;;17.35;50.85
51468;BME280;37545;45.302;-122.946;2022-10-15T08:16:04;100524.06;;;17.30;51.52
51468;BME280;37545;45.302;-122.946;2022-10-15T08:18:33;100524.91;;;17.29;49.80
51468;BME280;37545;45.302;-122.946;2022-10-15T08:21:01;100518.84;;;17.27;49.86
51468;BME280;37545;45.302;-122.946;2022-10-15T08:23:30;100516.22;;;17.26;49.35
51468;BME280;37545;45.302;-122.946;2022-10-15T08:25:59;100517.97;;;17.21;49.43
51468;BME280;37545;45.302;-122.946;2022-10-15T08:28:30;100530.19;;;17.19;49.49
51468;BME280;37545;45.302;-122.946;2022-10-15T08:30:59;100518.00;;;17.16;50.00
51468;BME280;37545;45.302;-122.946;2022-10-15T08:33:29;100519.72;;;17.14;48.56
51468;BME280;37545;45.302;-122.946;2022-10-15T08:35:57;100515.38;;;17.14;50.47
51468;BME280;37545;45.302;-122.946;2022-10-15T08:38:26;100517.09;;;17.11;48.87
51468;BME280;37545;45.302;-122.946;2022-10-15T08:40:55;100513.66;;;17.09;49.64
51468;BME280;37545;45.302;-122.946;2022-10-15T08:43:31;100522.34;;;17.05;49.69
51468;BME280;37545;45.302;-122.946;2022-10-15T08:46:04;100524.09;;;17.03;50.58
51468;BME280;37545;45.302;-122.946;2022-10-15T08:48:36;100518.00;;;16.96;50.21
51468;BME280;37545;45.302;-122.946;2022-10-15T08:51:10;100518.88;;;16.93;50.13
51468;BME280;37545;45.302;-122.946;2022-10-15T08:53:44;100516.25;;;16.87;50.91
51468;BME280;37545;45.302;-122.946;2022-10-15T08:56:16;100512.78;;;16.85;51.01
51468;BME280;37545;45.302;-122.946;2022-10-15T08:58:55;100511.03;;;16.84;49.27
51468;BME280;37545;45.302;-122.946;2022-10-15T09:01:30;100504.06;;;16.83;49.49
51468;BME280;37545;45.302;-122.946;2022-10-15T09:04:11;100504.94;;;16.81;49.68
51468;BME280;37545;45.302;-122.946;2022-10-15T09:06:42;100502.28;;;16.78;50.24
51468;BME280;37545;45.302;-122.946;2022-10-15T09:09:18;100501.41;;;16.75;49.45
51468;BME280;37545;45.302;-122.946;2022-10-15T09:11:57;100504.91;;;16.74;49.75
51468;BME280;37545;45.302;-122.946;2022-10-15T09:14:34;100490.97;;;16.71;48.31
51468;BME280;37545;45.302;-122.946;2022-10-15T09:17:12;100496.19;;;16.74;48.28
51468;BME280;37545;45.302;-122.946;2022-10-15T09:19:42;100495.31;;;16.76;48.27
51468;BME280;37545;45.302;-122.946;2022-10-15T09:22:16;100491.84;;;16.76;49.38
51468;BME280;37545;45.302;-122.946;2022-10-15T09:24:45;100490.97;;;16.74;49.56
51468;BME280;37545;45.302;-122.946;2022-10-15T09:27:24;100494.47;;;16.74;50.42
51468;BME280;37545;45.302;-122.946;2022-10-15T09:30:03;100498.78;;;16.74;48.37
51468;BME280;37545;45.302;-122.946;2022-10-15T09:32:38;100500.53;;;16.76;50.33
51468;BME280;37545;45.302;-122.946;2022-10-15T09:35:14;100510.13;;;16.76;49.15
51468;BME280;37545;45.302;-122.946;2022-10-15T09:37:49;100509.25;;;16.79;47.78
51468;BME280;37545;45.302;-122.946;2022-10-15T09:40:31;100511.03;;;16.86;51.22
51468;BME280;37545;45.302;-122.946;2022-10-15T09:43:04;100516.25;;;16.84;49.40
51468;BME280;37545;45.302;-122.946;2022-10-15T09:45:35;100515.38;;;16.82;48.96
51468;BME280;37545;45.302;-122.946;2022-10-15T09:48:13;100512.78;;;16.82;49.03
51468;BME280;37545;45.302;-122.946;2022-10-15T09:50:45;100511.03;;;16.83;49.24
51468;BME280;37545;45.302;-122.946;2022-10-15T09:53:22;100498.84;;;16.82;49.51
51468;BME280;37545;45.302;-122.946;2022-10-15T09:56:04;100502.31;;;16.82;48.95
51468;BME280;37545;45.302;-122.946;2022-10-15T09:58:39;100497.97;;;16.84;49.61
51468;BME280;37545;45.302;-122.946;2022-10-15T10:01:18;100491.00;;;16.83;49.35
51468;BME280;37545;45.302;-122.946;2022-10-15T10:03:51;100492.72;;;16.86;48.39
51468;BME280;37545;45.302;-122.946;2022-10-15T10:06:22;100484.03;;;16.88;49.15
51468;BME280;37545;45.302;-122.946;2022-10-15T10:08:53;100486.66;;;16.91;48.27
51468;BME280;37545;45.302;-122.946;2022-10-15T10:11:24;100489.25;;;16.94;48.36
51468;BME280;37545;45.302;-122.946;2022-10-15T10:13:55;100487.53;;;17.00;47.19
51468;BME280;37545;45.302;-122.946;2022-10-15T10:16:26;100489.25;;;17.07;46.95
51468;BME280;37545;45.302;-122.946;2022-10-15T10:19:08;100485.75;;;17.14;46.77
51468;BME280;37545;45.302;-122.946;2022-10-15T10:21:40;100494.44;;;17.22;47.11
51468;BME280;37545;45.302;-122.946;2022-10-15T10:24:26;100497.94;;;17.27;46.03
51468;BME280;37545;45.302;-122.946;2022-10-15T10:26:56;100494.44;;;17.34;46.24
51468;BME280;37545;45.302;-122.946;2022-10-15T10:29:25;100500.50;;;17.40;45.96
51468;BME280;37545;45.302;-122.946;2022-10-15T10:31:56;100484.81;;;17.41;45.83
51468;BME280;37545;45.302;-122.946;2022-10-15T10:34:28;100491.75;;;17.45;45.17
51468;BME280;37545;45.302;-122.946;2022-10-15T10:37:02;100496.13;;;17.48;45.75
51468;BME280;37545;45.302;-122.946;2022-10-15T10:39:33;100495.25;;;17.50;45.08
51468;BME280;37545;45.302;-122.946;2022-10-15T10:42:04;100490.88;;;17.54;45.29
51468;BME280;37545;45.302;-122.946;2022-10-15T10:44:36;100493.50;;;17.57;44.95
51468;BME280;37545;45.302;-122.946;2022-10-15T10:47:14;100489.97;;;17.58;45.19
51468;BME280;37545;45.302;-122.946;2022-10-15T10:49:44;100483.88;;;17.59;45.00
51468;BME280;37545;45.302;-122.946;2022-10-15T10:52:25;100483.88;;;17.62;44.80
51468;BME280;37545;45.302;-122.946;2022-10-15T10:54:59;100490.84;;;17.66;44.69
51468;BME280;37545;45.302;-122.946;2022-10-15T10:57:38;100492.53;;;17.70;44.23
51468;BME280;37545;45.302;-122.946;2022-10-15T11:00:13;100493.41;;;17.72;44.39
51468;BME280;37545;45.302;-122.946;2022-10-15T11:02:45;100493.41;;;17.75;44.86
51468;BME280;37545;45.302;-122.946;2022-10-15T11:05:16;100492.53;;;17.78;43.92
51468;BME280;37545;45.302;-122.946;2022-10-15T11:07:52;100488.16;;;17.80;44.95
51468;BME280;37545;45.302;-122.946;2022-10-15T11:10:22;100490.78;;;17.85;43.73
51468;BME280;37545;45.302;-122.946;2022-10-15T11:13:03;100479.41;;;17.92;44.42
51468;BME280;37545;45.302;-122.946;2022-10-15T11:15:42;100479.34;;;17.98;43.30
51468;BME280;37545;45.302;-122.946;2022-10-15T11:18:28;100483.72;;;18.05;43.52
51468;BME280;37545;45.302;-122.946;2022-10-15T11:21:09;100485.41;;;18.09;42.87
51468;BME280;37545;45.302;-122.946;2022-10-15T11:23:54;100485.41;;;18.12;42.80
51468;BME280;37545;45.302;-122.946;2022-10-15T11:26:37;100488.00;;;18.15;42.64
51468;BME280;37545;45.302;-122.946;2022-10-15T11:29:11;100494.97;;;18.18;43.56
51468;BME280;37545;45.302;-122.946;2022-10-15T11:31:49;100482.75;;;18.18;43.16
51468;BME280;37545;45.302;-122.946;2022-10-15T11:34:34;100481.88;;;18.19;43.81
51468;BME280;37545;45.302;-122.946;2022-10-15T11:37:18;100479.25;;;18.19;42.73
51468;BME280;37545;45.302;-122.946;2022-10-15T11:39:58;100486.22;;;18.20;43.38
51468;BME280;37545;45.302;-122.946;2022-10-15T11:42:34;100485.34;;;18.20;44.14
51468;BME280;37545;45.302;-122.946;2022-10-15T11:45:41;100492.34;;;18.19;43.10
51468;BME280;37545;45.302;-122.946;2022-10-15T11:48:20;100483.59;;;18.20;43.39
51468;BME280;37545;45.302;-122.946;2022-10-15T11:50:55;100488.84;;;18.20;43.49
51468;BME280;37545;45.302;-122.946;2022-10-15T11:53:35;100488.84;;;18.20;43.22
51468;BME280;37545;45.302;-122.946;2022-10-15T11:56:08;100477.50;;;18.20;42.76
51468;BME280;37545;45.302;-122.946;2022-10-15T11:58:41;100467.88;;;18.20;42.88
51468;BME280;37545;45.302;-122.946;2022-10-15T12:01:15;100472.25;;;18.21;43.16
51468;BME280;37545;45.302;-122.946;2022-10-15T12:03:50;100474.84;;;18.25;42.78
51468;BME280;37545;45.302;-122.946;2022-10-15T12:06:25;100481.81;;;18.27;42.80
51468;BME280;37545;45.302;-122.946;2022-10-15T12:08:56;100477.44;;;18.28;42.63
51468;BME280;37545;45.302;-122.946;2022-10-15T12:11:35;100473.09;;;18.27;42.98
51468;BME280;37545;45.302;-122.946;2022-10-15T12:14:21;100481.81;;;18.27;42.87
51468;BME280;37545;45.302;-122.946;2022-10-15T12:17:02;100478.34;;;18.27;43.06
51468;BME280;37545;45.302;-122.946;2022-10-15T12:19:37;100479.19;;;18.27;42.64
51468;BME280;37545;45.302;-122.946;2022-10-15T12:22:11;100487.09;;;18.26;42.78
51468;BME280;37545;45.302;-122.946;2022-10-15T12:24:50;100486.22;;;18.24;42.66
51468;BME280;37545;45.302;-122.946;2022-10-15T12:27:25;100488.84;;;18.24;43.44
51468;BME280;37545;45.302;-122.946;2022-10-15T12:30:19;100490.59;;;18.21;43.36
51468;BME280;37545;45.302;-122.946;2022-10-15T12:32:49;100495.84;;;18.21;43.52
51468;BME280;37545;45.302;-122.946;2022-10-15T12:35:22;100495.84;;;18.21;43.23
51468;BME280;37545;45.302;-122.946;2022-10-15T12:37:52;100496.69;;;18.20;43.18
51468;BME280;37545;45.302;-122.946;2022-10-15T12:40:27;100494.97;;;18.19;42.91
51468;BME280;37545;45.302;-122.946;2022-10-15T12:42:57;100503.69;;;18.18;43.32
51468;BME280;37545;45.302;-122.946;2022-10-15T12:45:32;100507.19;;;18.17;43.96